SWR52F EDDL-LSZH
Flight info
| Callsign | SWR52F |
|---|---|
| Flight time | N/A |
| Altitude | 31000 |
| Route | DODEN7Z DODEN Y852 TUSUK DCT ULNOK L607 SUNEG T721 LAMGO/N0398F270 T721 RILAX |
| Aircraft | A359/H-SDE2E3GHIJ3J4J5LM1ORWXY/LB1D1 |
Departure
| Time | 2026-05-07 15:50 |
|---|---|
| Airport | Düsseldorf Airport (EDDL) |
Arrival
| Time | N/A |
|---|---|
| Airport | Zürich Airport (LSZH) |
| Time | Latitude | Longitude | Altitude | Speed | Heading |
|---|---|---|---|---|---|
| 2026-05-07 15:26 | 51.28258 | 6.76694 | 130 ft | 0 kts | 201° |
| 2026-05-07 15:30 | 51.28263 | 6.76697 | 134 ft | 5 kts | 201° |
| 2026-05-07 15:31 | 51.28258 | 6.76694 | 133 ft | 0 kts | 201° |
| 2026-05-07 15:40 | 51.28271 | 6.76702 | 130 ft | 4 kts | 199° |
| 2026-05-07 15:40 | 51.28296 | 6.76717 | 130 ft | 4 kts | 206° |
| 2026-05-07 15:40 | 51.28315 | 6.76741 | 129 ft | 3 kts | 253° |
| 2026-05-07 15:40 | 51.28319 | 6.76778 | 134 ft | 4 kts | 283° |
| 2026-05-07 15:41 | 51.28307 | 6.76811 | 132 ft | 4 kts | 327° |
| 2026-05-07 15:41 | 51.28287 | 6.76830 | 135 ft | 1 kts | 322° |
| 2026-05-07 15:41 | 51.28286 | 6.76831 | 135 ft | 0 kts | 322° |
| 2026-05-07 15:46 | 51.28287 | 6.76830 | 135 ft | 0 kts | 322° |
| 2026-05-07 15:46 | 51.28307 | 6.76804 | 131 ft | 10 kts | 320° |
| 2026-05-07 15:46 | 51.28371 | 6.76725 | 123 ft | 12 kts | 322° |
| 2026-05-07 15:47 | 51.28401 | 6.76608 | 122 ft | 13 kts | 250° |
| 2026-05-07 15:47 | 51.28342 | 6.76467 | 121 ft | 18 kts | 234° |
| 2026-05-07 15:47 | 51.28260 | 6.76297 | 124 ft | 21 kts | 232° |
| 2026-05-07 15:47 | 51.28170 | 6.76110 | 135 ft | 21 kts | 233° |
| 2026-05-07 15:48 | 51.28077 | 6.75913 | 136 ft | 23 kts | 233° |
| 2026-05-07 15:48 | 51.27979 | 6.75710 | 136 ft | 17 kts | 233° |
| 2026-05-07 15:48 | 51.27908 | 6.75562 | 135 ft | 17 kts | 233° |
| 2026-05-07 15:48 | 51.27850 | 6.75430 | 131 ft | 12 kts | 242° |
| 2026-05-07 15:49 | 51.27874 | 6.75316 | 126 ft | 13 kts | 331° |
| 2026-05-07 15:49 | 51.27932 | 6.75273 | 126 ft | 13 kts | 336° |
| 2026-05-07 15:49 | 51.28020 | 6.75326 | 126 ft | 3 kts | 51° |
| 2026-05-07 15:49 | 51.28029 | 6.75345 | 122 ft | 17 kts | 51° |
| 2026-05-07 15:50 | 51.28281 | 6.75871 | 135 ft | 99 kts | 53° |
| 2026-05-07 15:50 | 51.28844 | 6.77045 | 174 ft | 162 kts | 52° |
| 2026-05-07 15:50 | 51.29314 | 6.78031 | 641 ft | 167 kts | 52° |
| 2026-05-07 15:50 | 51.30179 | 6.79869 | 1704 ft | 170 kts | 51° |
| 2026-05-07 15:51 | 51.30297 | 6.80118 | 1763 ft | 173 kts | 51° |
| 2026-05-07 15:51 | 51.31070 | 6.81750 | 2050 ft | 196 kts | 50° |
| 2026-05-07 15:51 | 51.31952 | 6.83603 | 2255 ft | 224 kts | 52° |
| 2026-05-07 15:51 | 51.32939 | 6.85685 | 2613 ft | 243 kts | 52° |
| 2026-05-07 15:52 | 51.33968 | 6.87883 | 3303 ft | 249 kts | 53° |
| 2026-05-07 15:52 | 51.34881 | 6.90262 | 4053 ft | 254 kts | 64° |
| 2026-05-07 15:52 | 51.35247 | 6.93052 | 4790 ft | 262 kts | 89° |
| 2026-05-07 15:52 | 51.35042 | 6.95964 | 5529 ft | 266 kts | 98° |
| 2026-05-07 15:53 | 51.34724 | 6.98905 | 6268 ft | 270 kts | 99° |
| 2026-05-07 15:53 | 51.34402 | 7.01885 | 6993 ft | 273 kts | 99° |
| 2026-05-07 15:53 | 51.34087 | 7.04894 | 7725 ft | 277 kts | 99° |
| 2026-05-07 15:53 | 51.33772 | 7.07950 | 8445 ft | 281 kts | 99° |
| 2026-05-07 15:54 | 51.33454 | 7.11060 | 9136 ft | 286 kts | 99° |
| 2026-05-07 15:54 | 51.33250 | 7.13053 | 9576 ft | 289 kts | 99° |
| 2026-05-07 15:54 | 51.32862 | 7.16180 | 10279 ft | 295 kts | 107° |
| 2026-05-07 15:54 | 51.31882 | 7.19177 | 10720 ft | 318 kts | 130° |
| 2026-05-07 15:55 | 51.30303 | 7.21812 | 11261 ft | 337 kts | 137° |
| 2026-05-07 15:55 | 51.28588 | 7.24447 | 12113 ft | 345 kts | 136° |
| 2026-05-07 15:55 | 51.26857 | 7.27127 | 13095 ft | 350 kts | 136° |
| 2026-05-07 15:55 | 51.25098 | 7.29873 | 13968 ft | 357 kts | 136° |
| 2026-05-07 15:56 | 51.23335 | 7.32637 | 14775 ft | 362 kts | 136° |
| 2026-05-07 15:56 | 51.21512 | 7.35499 | 15661 ft | 365 kts | 136° |
| 2026-05-07 15:56 | 51.19719 | 7.38315 | 16479 ft | 369 kts | 136° |
| 2026-05-07 15:56 | 51.17879 | 7.41206 | 17311 ft | 374 kts | 136° |
| 2026-05-07 15:57 | 51.15942 | 7.44002 | 18218 ft | 377 kts | 144° |
| 2026-05-07 15:57 | 51.13735 | 7.46282 | 18995 ft | 380 kts | 151° |
| 2026-05-07 15:57 | 51.11406 | 7.48313 | 19794 ft | 384 kts | 154° |
| 2026-05-07 15:57 | 51.08998 | 7.50217 | 20603 ft | 388 kts | 156° |
| 2026-05-07 15:58 | 51.06546 | 7.52061 | 21390 ft | 392 kts | 156° |
| 2026-05-07 15:58 | 51.04062 | 7.53898 | 22148 ft | 396 kts | 157° |
| 2026-05-07 15:58 | 51.01514 | 7.55782 | 22928 ft | 401 kts | 156° |
| 2026-05-07 15:58 | 50.99010 | 7.57646 | 23643 ft | 405 kts | 156° |
| 2026-05-07 15:59 | 50.96437 | 7.59575 | 24187 ft | 412 kts | 156° |
| 2026-05-07 15:59 | 50.93841 | 7.61533 | 24785 ft | 416 kts | 156° |
| 2026-05-07 15:59 | 50.91213 | 7.63519 | 25410 ft | 420 kts | 156° |
| 2026-05-07 15:59 | 50.88527 | 7.65548 | 26056 ft | 424 kts | 156° |
| 2026-05-07 16:00 | 50.85842 | 7.67576 | 26656 ft | 428 kts | 156° |
| 2026-05-07 16:00 | 50.83147 | 7.69607 | 27257 ft | 432 kts | 155° |
| 2026-05-07 16:00 | 50.80420 | 7.71660 | 27847 ft | 436 kts | 155° |
| 2026-05-07 16:00 | 50.77697 | 7.73707 | 28412 ft | 441 kts | 155° |
| 2026-05-07 16:01 | 50.74881 | 7.75819 | 28996 ft | 445 kts | 155° |
| 2026-05-07 16:01 | 50.72073 | 7.77923 | 29576 ft | 449 kts | 155° |
| 2026-05-07 16:01 | 50.69243 | 7.80041 | 30112 ft | 452 kts | 155° |
| 2026-05-07 16:01 | 50.66382 | 7.82178 | 30559 ft | 456 kts | 155° |
| 2026-05-07 16:02 | 50.63502 | 7.84327 | 30926 ft | 461 kts | 155° |
| 2026-05-07 16:02 | 50.60617 | 7.86477 | 31038 ft | 452 kts | 155° |
| 2026-05-07 16:02 | 50.57828 | 7.88555 | 31055 ft | 437 kts | 155° |
| 2026-05-07 16:03 | 50.52372 | 7.92608 | 31048 ft | 433 kts | 155° |
| 2026-05-07 16:03 | 50.46926 | 7.96640 | 31045 ft | 433 kts | 155° |
| 2026-05-07 16:04 | 50.41474 | 8.00666 | 31046 ft | 433 kts | 155° |
| 2026-05-07 16:04 | 50.36030 | 8.04677 | 31039 ft | 433 kts | 156° |
| 2026-05-07 16:05 | 50.30611 | 8.08660 | 31047 ft | 433 kts | 156° |
| 2026-05-07 16:05 | 50.25157 | 8.12659 | 31048 ft | 433 kts | 156° |
| 2026-05-07 16:06 | 50.19701 | 8.16649 | 31046 ft | 433 kts | 156° |
| 2026-05-07 16:06 | 50.14242 | 8.20631 | 31045 ft | 433 kts | 156° |
| 2026-05-07 16:07 | 50.08778 | 8.24606 | 31045 ft | 434 kts | 156° |
| 2026-05-07 16:07 | 50.03312 | 8.28573 | 31045 ft | 433 kts | 156° |
| 2026-05-07 16:08 | 49.97851 | 8.32527 | 31045 ft | 433 kts | 156° |
| 2026-05-07 16:08 | 49.92394 | 8.36467 | 31044 ft | 433 kts | 156° |
| 2026-05-07 16:09 | 49.86944 | 8.40456 | 31040 ft | 433 kts | 153° |
| 2026-05-07 16:09 | 49.81778 | 8.45277 | 31045 ft | 433 kts | 155° |
| 2026-05-07 16:10 | 49.76009 | 8.48228 | 31040 ft | 450 kts | 171° |
| 2026-05-07 16:10 | 49.72872 | 8.49000 | 31031 ft | 464 kts | 173° |
| 2026-05-07 16:10 | 49.69623 | 8.49699 | 31034 ft | 478 kts | 173° |
| 2026-05-07 16:10 | 49.66281 | 8.50395 | 31037 ft | 491 kts | 173° |
| 2026-05-07 16:11 | 49.62860 | 8.51100 | 31038 ft | 500 kts | 174° |
| 2026-05-07 16:11 | 49.55960 | 8.52511 | 31046 ft | 500 kts | 174° |
| 2026-05-07 16:12 | 49.49518 | 8.53820 | 31046 ft | 499 kts | 174° |